createdAt,value
2018-06-13T00:00:20.559Z,13.07
2018-06-13T00:02:52.605Z,12.00
2018-06-13T00:05:21.294Z,11.73
2018-06-13T00:07:50.007Z,14.17
2018-06-13T00:10:18.333Z,13.70
2018-06-13T00:12:47.028Z,11.90
2018-06-13T00:15:15.767Z,13.10
2018-06-13T00:17:44.450Z,13.30
2018-06-13T00:20:13.095Z,13.37
2018-06-13T00:22:42.874Z,13.30
2018-06-13T00:25:11.544Z,13.80
2018-06-13T00:27:40.221Z,10.70
2018-06-13T00:30:08.915Z,12.63
2018-06-13T00:32:37.675Z,12.83
2018-06-13T00:35:06.728Z,12.93
2018-06-13T00:37:35.430Z,13.37
2018-06-13T00:40:04.149Z,13.47
2018-06-13T00:42:32.834Z,12.27
2018-06-13T00:45:01.588Z,15.00
2018-06-13T00:47:30.315Z,14.47
2018-06-13T00:49:59.040Z,15.40
2018-06-13T00:52:27.765Z,14.47
2018-06-13T00:54:56.429Z,14.47
2018-06-13T00:57:25.108Z,13.53
2018-06-13T00:59:53.813Z,14.53
2018-06-13T01:02:22.490Z,14.10
2018-06-13T01:04:51.463Z,14.23
2018-06-13T01:07:20.138Z,13.67
2018-06-13T01:09:48.838Z,14.27
2018-06-13T01:12:17.607Z,13.97
2018-06-13T01:14:46.674Z,15.07
2018-06-13T01:17:15.507Z,14.40
2018-06-13T01:19:44.998Z,14.67
2018-06-13T01:22:13.658Z,17.23
2018-06-13T01:24:41.995Z,15.77
2018-06-13T01:27:10.681Z,15.10
2018-06-13T01:29:39.400Z,14.67
2018-06-13T01:32:08.061Z,14.50
2018-06-13T01:34:36.777Z,13.87
2018-06-13T01:37:05.491Z,11.90
2018-06-13T01:39:34.188Z,14.00
2018-06-13T01:42:02.880Z,13.50
2018-06-13T01:44:31.543Z,13.80
2018-06-13T01:47:00.284Z,14.47
2018-06-13T01:49:28.969Z,13.53
2018-06-13T01:51:57.647Z,13.77
2018-06-13T01:54:26.373Z,12.43
2018-06-13T01:56:55.136Z,13.50
2018-06-13T01:59:23.844Z,13.57
2018-06-13T02:01:52.512Z,13.70
2018-06-13T02:04:21.178Z,13.70
2018-06-13T02:06:49.894Z,13.30
2018-06-13T02:09:18.598Z,13.73
2018-06-13T02:14:38.234Z,13.10
2018-06-13T02:17:06.930Z,13.20
2018-06-13T02:19:35.667Z,13.00
2018-06-13T02:22:04.341Z,13.03
2018-06-13T02:24:33.060Z,12.40
2018-06-13T02:27:01.745Z,12.00
2018-06-13T02:29:30.555Z,13.00
2018-06-13T02:31:59.258Z,12.00
2018-06-13T02:34:27.939Z,12.00
2018-06-13T02:36:56.648Z,12.93
2018-06-13T02:39:25.327Z,13.47
2018-06-13T02:41:54.063Z,11.70
2018-06-13T02:44:22.773Z,11.20
2018-06-13T02:46:51.449Z,11.20
2018-06-13T02:49:20.161Z,11.40
2018-06-13T02:51:48.874Z,10.73
2018-06-13T02:54:17.571Z,12.43
2018-06-13T02:56:46.270Z,12.90
2018-06-13T02:59:14.957Z,12.03
2018-06-13T03:01:43.667Z,12.73
2018-06-13T03:04:12.363Z,12.47
2018-06-13T03:06:41.087Z,12.43
2018-06-13T03:09:09.777Z,10.73
2018-06-13T03:11:38.451Z,11.70
2018-06-13T03:14:07.160Z,11.87
2018-06-13T03:16:35.875Z,10.17
2018-06-13T03:19:04.611Z,11.00
2018-06-13T03:21:33.312Z,11.87
2018-06-13T03:24:01.980Z,11.83
2018-06-13T03:26:30.710Z,10.60
2018-06-13T03:28:59.453Z,11.47
2018-06-13T03:31:28.156Z,11.43
2018-06-13T03:33:57.051Z,11.23
2018-06-13T03:36:25.345Z,10.43
2018-06-13T03:38:54.051Z,12.47
2018-06-13T03:41:22.749Z,12.27
2018-06-13T03:43:51.436Z,10.73
2018-06-13T03:46:20.102Z,11.00
2018-06-13T03:48:49.083Z,11.47
2018-06-13T03:51:17.785Z,10.63
2018-06-13T03:53:46.485Z,11.70
2018-06-13T03:56:15.186Z,10.50
2018-06-13T03:58:43.882Z,11.00
2018-06-13T04:01:12.630Z,11.30
2018-06-13T04:03:41.314Z,10.40
2018-06-13T04:06:10.017Z,10.90
2018-06-13T04:08:38.742Z,10.80
2018-06-13T04:11:07.033Z,10.80
2018-06-13T04:13:35.727Z,11.60
2018-06-13T04:16:04.635Z,11.60
2018-06-13T04:18:33.347Z,11.47
2018-06-13T04:21:02.042Z,10.90
2018-06-13T04:23:30.764Z,11.37
2018-06-13T04:25:59.443Z,12.57
2018-06-13T04:28:28.142Z,12.40
2018-06-13T04:30:56.819Z,13.10
2018-06-13T04:33:25.549Z,11.90
2018-06-13T04:35:54.267Z,11.97
2018-06-13T04:38:22.929Z,12.20
2018-06-13T04:40:51.637Z,12.70
2018-06-13T04:43:20.320Z,12.70
2018-06-13T04:45:49.023Z,13.73
2018-06-13T04:48:17.366Z,12.30
2018-06-13T04:50:46.066Z,12.80
2018-06-13T04:53:14.764Z,13.73
2018-06-13T04:55:43.461Z,13.40
2018-06-13T04:58:12.158Z,12.70
2018-06-13T05:00:40.997Z,13.97
2018-06-13T05:03:09.705Z,12.87
2018-06-13T05:05:38.455Z,14.97
2018-06-13T05:08:07.181Z,13.50
2018-06-13T05:10:35.936Z,11.87
2018-06-13T05:13:04.634Z,12.40
2018-06-13T05:15:33.343Z,13.27
2018-06-13T05:18:11.613Z,11.90
2018-06-13T05:20:40.442Z,13.30
2018-06-13T05:23:09.618Z,13.60
2018-06-13T05:25:38.357Z,12.30
2018-06-13T05:28:07.041Z,11.70
2018-06-13T05:30:35.787Z,12.90
2018-06-13T05:33:04.520Z,12.20
2018-06-13T05:35:33.238Z,12.70
2018-06-13T05:38:01.917Z,13.23
2018-06-13T05:40:30.602Z,12.33
2018-06-13T05:42:59.290Z,13.23
2018-06-13T05:45:27.953Z,12.70
2018-06-13T05:47:56.682Z,12.97
2018-06-13T05:50:25.430Z,12.13
2018-06-13T05:52:54.242Z,12.30
2018-06-13T05:55:22.959Z,12.07
2018-06-13T05:57:51.695Z,11.83
2018-06-13T06:00:20.422Z,11.93
2018-06-13T06:02:49.087Z,12.03
2018-06-13T06:05:17.786Z,11.10
2018-06-13T06:07:46.506Z,11.20
2018-06-13T06:10:15.256Z,12.90
2018-06-13T06:12:43.979Z,11.13
2018-06-13T06:15:12.682Z,10.43
2018-06-13T06:17:41.398Z,11.50
2018-06-13T06:20:10.085Z,11.43
2018-06-13T06:22:38.770Z,9.67
2018-06-13T06:25:08.926Z,10.00
2018-06-13T06:27:37.622Z,9.43
2018-06-13T06:30:26.198Z,9.73
2018-06-13T06:32:54.518Z,8.40
2018-06-13T06:35:23.186Z,8.63
2018-06-13T06:37:51.897Z,8.43
2018-06-13T06:40:20.602Z,7.60
2018-06-13T06:43:02.675Z,8.50
2018-06-13T06:45:31.371Z,8.40
2018-06-13T06:48:00.039Z,7.13
2018-06-13T06:50:28.765Z,8.00
2018-06-13T06:52:57.475Z,7.17
2018-06-13T06:55:26.230Z,6.87
2018-06-13T06:57:54.946Z,7.20
2018-06-13T07:00:23.626Z,6.30
2018-06-13T07:02:52.357Z,7.80
2018-06-13T07:05:21.046Z,8.03
2018-06-13T07:07:49.798Z,8.60
2018-06-13T07:10:18.495Z,9.70
2018-06-13T07:12:47.239Z,8.40
2018-06-13T07:15:15.998Z,9.97
2018-06-13T07:17:44.698Z,9.70
2018-06-13T07:20:13.431Z,8.77
2018-06-13T07:22:42.167Z,9.73
2018-06-13T07:25:10.855Z,10.00
2018-06-13T07:27:39.565Z,10.40
2018-06-13T07:30:08.308Z,10.27
2018-06-13T07:32:37.011Z,10.00
2018-06-13T07:35:05.706Z,9.93
2018-06-13T07:37:34.466Z,10.97
2018-06-13T07:40:03.226Z,10.33
2018-06-13T07:42:31.944Z,13.00
2018-06-13T07:45:00.726Z,11.37
2018-06-13T07:47:29.402Z,12.40
2018-06-13T07:49:58.138Z,10.80
2018-06-13T07:52:26.867Z,11.27
2018-06-13T07:54:55.591Z,11.70
2018-06-13T07:57:24.292Z,10.73
2018-06-13T07:59:52.970Z,10.50
2018-06-13T08:02:21.750Z,12.03
2018-06-13T08:04:50.419Z,10.57
2018-06-13T08:07:19.133Z,9.70
2018-06-13T08:09:47.866Z,10.93
2018-06-13T08:12:16.602Z,9.73
2018-06-13T08:14:45.310Z,11.07
2018-06-13T08:17:14.022Z,9.23
2018-06-13T08:19:42.728Z,10.10
2018-06-13T08:22:11.458Z,9.90
2018-06-13T08:24:51.422Z,9.43
2018-06-13T08:27:20.331Z,9.27
2018-06-13T08:29:49.014Z,8.80
2018-06-13T08:32:17.714Z,9.23
2018-06-13T08:34:46.421Z,7.90
2018-06-13T08:37:15.134Z,8.60
2018-06-13T08:39:43.899Z,7.63
2018-06-13T08:42:12.583Z,8.30
2018-06-13T08:44:41.263Z,7.70
2018-06-13T08:47:09.977Z,7.43
2018-06-13T08:49:38.668Z,7.60
2018-06-13T08:52:07.379Z,7.07
2018-06-13T08:54:36.072Z,7.20
2018-06-13T08:57:04.881Z,6.97
2018-06-13T08:59:33.579Z,6.97
2018-06-13T09:02:02.274Z,7.47
2018-06-13T09:04:30.984Z,6.57
2018-06-13T09:06:59.649Z,6.50
2018-06-13T09:09:28.350Z,6.50
2018-06-13T09:11:57.040Z,7.53
2018-06-13T09:14:25.702Z,6.50
2018-06-13T09:16:55.249Z,6.90
2018-06-13T09:19:23.959Z,6.07
2018-06-13T09:21:52.305Z,6.53
2018-06-13T09:24:21.008Z,5.90
2018-06-13T09:26:49.746Z,6.80
2018-06-13T09:29:19.367Z,6.50
2018-06-13T09:31:48.307Z,6.27
2018-06-13T09:34:16.983Z,6.23
2018-06-13T09:36:45.717Z,6.50
2018-06-13T09:39:14.448Z,6.23
2018-06-13T09:41:48.520Z,5.90
2018-06-13T09:44:17.244Z,5.93
2018-06-13T09:46:48.920Z,5.67
2018-06-13T09:49:14.764Z,5.67
2018-06-13T09:51:43.720Z,5.30
2018-06-13T09:54:12.526Z,5.40
2018-06-13T09:56:41.268Z,5.23
2018-06-13T09:59:14.899Z,4.90
2018-06-13T10:02:18.749Z,4.50
2018-06-13T10:04:48.467Z,4.70
2018-06-13T10:07:17.223Z,5.10
2018-06-13T10:09:45.920Z,4.60
2018-06-13T10:12:14.698Z,4.90
2018-06-13T10:14:43.387Z,4.30
2018-06-13T10:17:24.395Z,5.73
2018-06-13T10:19:53.075Z,5.00
2018-06-13T10:22:21.932Z,4.60
2018-06-13T10:24:50.741Z,5.37
2018-06-13T10:27:24.570Z,4.33
2018-06-13T10:29:53.262Z,5.07
2018-06-13T10:32:21.961Z,5.10
2018-06-13T10:34:50.671Z,4.97
2018-06-13T10:37:18.969Z,4.30
2018-06-13T10:39:49.729Z,4.97
2018-06-13T10:42:19.566Z,4.97
2018-06-13T10:44:48.293Z,4.20
2018-06-13T10:47:16.995Z,4.77
2018-06-13T10:49:45.674Z,4.77
2018-06-13T10:52:14.338Z,4.67
2018-06-13T10:54:43.024Z,3.90
2018-06-13T10:57:11.764Z,4.17
2018-06-13T10:59:40.541Z,4.33
2018-06-13T11:02:09.695Z,4.80
2018-06-13T11:04:38.482Z,4.47
2018-06-13T11:07:07.165Z,4.90
2018-06-13T11:09:35.829Z,4.57
2018-06-13T11:12:04.590Z,4.73
2018-06-13T11:14:33.257Z,3.90
2018-06-13T11:17:02.044Z,4.30
2018-06-13T11:19:31.274Z,5.10
2018-06-13T11:21:59.985Z,4.87
2018-06-13T11:24:28.681Z,4.70
2018-06-13T11:26:57.348Z,4.73
2018-06-13T11:29:26.009Z,5.10
2018-06-13T11:31:54.728Z,5.00
2018-06-13T11:34:23.383Z,4.97
2018-06-13T11:36:52.540Z,4.87
2018-06-13T11:39:21.346Z,4.90
2018-06-13T11:41:50.032Z,4.97
2018-06-13T11:44:18.759Z,4.90
2018-06-13T11:46:47.451Z,5.63
2018-06-13T11:49:16.142Z,4.80
2018-06-13T11:51:44.816Z,4.70
2018-06-13T11:54:13.493Z,4.40
2018-06-13T11:56:42.251Z,5.03
2018-06-13T11:59:10.954Z,5.40
2018-06-13T12:01:39.718Z,5.10
2018-06-13T12:04:08.498Z,5.13
2018-06-13T12:06:37.202Z,5.10
2018-06-13T12:09:07.349Z,5.60
2018-06-13T12:11:36.105Z,5.50
2018-06-13T12:14:04.799Z,5.67
2018-06-13T12:16:33.490Z,6.30
2018-06-13T12:19:02.220Z,6.23
2018-06-13T12:21:30.911Z,6.67
2018-06-13T12:23:59.643Z,5.23
2018-06-13T12:26:28.370Z,5.27
2018-06-13T12:28:57.083Z,4.63
2018-06-13T12:31:25.749Z,4.83
2018-06-13T12:33:54.819Z,5.10
2018-06-13T12:36:23.469Z,5.63
2018-06-13T12:38:52.159Z,5.57
2018-06-13T12:41:20.868Z,5.07
2018-06-13T12:43:49.586Z,5.77
2018-06-13T12:46:18.448Z,5.77
2018-06-13T12:48:47.444Z,6.50
2018-06-13T12:51:18.177Z,5.30
2018-06-13T12:53:47.242Z,5.37
2018-06-13T12:56:15.998Z,4.90
2018-06-13T12:58:45.686Z,5.57
2018-06-13T13:01:14.349Z,5.53
2018-06-13T13:03:43.059Z,5.27
2018-06-13T13:06:11.750Z,6.10
2018-06-13T13:08:40.471Z,5.43
2018-06-13T13:11:09.203Z,5.20
2018-06-13T13:13:37.871Z,4.80
2018-06-13T13:16:06.677Z,4.53
2018-06-13T13:18:35.357Z,4.97
2018-06-13T13:21:04.087Z,4.77
2018-06-13T13:23:32.772Z,5.13
2018-06-13T13:26:01.470Z,5.00
2018-06-13T13:28:30.180Z,4.63
2018-06-13T13:30:58.895Z,4.50
2018-06-13T13:33:27.612Z,4.53
2018-06-13T13:35:56.399Z,4.63
2018-06-13T13:38:25.105Z,5.37
2018-06-13T13:40:53.807Z,4.17
2018-06-13T13:43:22.505Z,3.60
2018-06-13T13:45:51.353Z,3.90
2018-06-13T13:48:19.973Z,3.67
2018-06-13T13:50:50.718Z,4.20
2018-06-13T13:53:19.439Z,4.20
2018-06-13T13:55:48.117Z,4.00
2018-06-13T13:58:16.797Z,4.13
2018-06-13T14:00:46.485Z,3.80
2018-06-13T14:03:15.202Z,4.37
2018-06-13T14:05:43.955Z,4.03
2018-06-13T14:08:12.883Z,4.17
2018-06-13T14:10:41.554Z,4.13
2018-06-13T14:13:10.218Z,3.63
2018-06-13T14:15:39.662Z,4.50
2018-06-13T14:18:11.442Z,3.50
2018-06-13T14:20:40.230Z,3.80
2018-06-13T14:23:27.859Z,3.60
2018-06-13T14:25:56.603Z,4.00
2018-06-13T14:28:25.382Z,3.47
2018-06-13T14:30:54.070Z,3.70
2018-06-13T14:33:22.821Z,3.30
2018-06-13T14:35:51.525Z,3.37
2018-06-13T14:38:19.845Z,3.30
2018-06-13T14:40:48.502Z,3.60
2018-06-13T14:43:17.381Z,3.80
2018-06-13T14:45:46.102Z,3.60
2018-06-13T14:48:18.261Z,3.70
2018-06-13T14:50:47.048Z,3.80
2018-06-13T14:53:15.841Z,3.43
2018-06-13T14:55:50.693Z,4.03
2018-06-13T14:58:21.729Z,4.40
2018-06-13T15:00:50.573Z,4.00
2018-06-13T15:03:19.274Z,4.07
2018-06-13T15:05:53.447Z,4.13
2018-06-13T15:08:22.835Z,4.30
2018-06-13T15:10:51.570Z,4.17
2018-06-13T15:13:20.382Z,3.73
2018-06-13T15:15:49.452Z,3.63
2018-06-13T15:18:18.142Z,4.43
2018-06-13T15:20:46.890Z,3.50
2018-06-13T15:23:15.600Z,3.97
2018-06-13T15:25:44.262Z,3.60
2018-06-13T15:28:13.001Z,3.53
2018-06-13T15:30:41.731Z,3.63
2018-06-13T15:33:12.201Z,2.90
2018-06-13T15:35:40.993Z,3.90
2018-06-13T15:38:09.689Z,3.97
2018-06-13T15:40:38.459Z,4.10
2018-06-13T15:43:07.150Z,3.87
2018-06-13T15:45:35.886Z,4.27
2018-06-13T15:48:04.823Z,3.33
2018-06-13T15:50:33.573Z,3.80
2018-06-13T15:53:02.292Z,3.60
2018-06-13T15:55:30.958Z,3.93
2018-06-13T15:57:59.671Z,3.90
2018-06-13T16:00:28.371Z,3.47
2018-06-13T16:02:57.038Z,3.60
2018-06-13T16:05:29.619Z,3.37
2018-06-13T16:07:58.318Z,3.67
2018-06-13T16:10:27.068Z,3.93
2018-06-13T16:12:55.779Z,4.43
2018-06-13T16:15:24.530Z,4.00
2018-06-13T16:17:53.239Z,4.10
2018-06-13T16:20:22.160Z,4.10
2018-06-13T16:22:50.899Z,4.20
2018-06-13T16:25:19.602Z,4.83
2018-06-13T16:27:48.295Z,4.40
2018-06-13T16:30:17.044Z,4.50
2018-06-13T16:32:45.791Z,4.47
2018-06-13T16:35:14.523Z,4.70
2018-06-13T16:37:43.203Z,4.43
2018-06-13T16:40:11.501Z,4.20
2018-06-13T16:42:40.211Z,4.40
2018-06-13T16:45:08.932Z,4.47
2018-06-13T16:47:37.688Z,4.40
2018-06-13T16:50:17.661Z,4.97
2018-06-13T16:55:18.882Z,4.17
2018-06-13T16:57:48.147Z,4.07
2018-06-13T17:00:17.208Z,4.23
2018-06-13T17:02:45.963Z,4.63
2018-06-13T17:05:14.850Z,4.23
2018-06-13T17:07:43.659Z,4.50
2018-06-13T17:10:12.447Z,4.70
2018-06-13T17:12:41.393Z,4.77
2018-06-13T17:15:09.745Z,4.80
2018-06-13T17:17:38.550Z,4.60
2018-06-13T17:20:07.312Z,4.30
2018-06-13T17:22:36.013Z,4.57
2018-06-13T17:25:05.718Z,4.57
2018-06-13T17:27:34.428Z,4.30
2018-06-13T17:30:03.264Z,3.77
2018-06-13T17:32:32.659Z,3.77
2018-06-13T17:35:01.370Z,3.53
2018-06-13T17:37:35.778Z,4.00
2018-06-13T17:40:04.561Z,4.10
2018-06-13T17:42:34.490Z,4.20
2018-06-13T17:45:03.316Z,3.90
2018-06-13T17:47:31.981Z,4.37
2018-06-13T17:50:00.655Z,4.30
2018-06-13T17:52:29.362Z,3.90
2018-06-13T17:54:58.023Z,4.40
2018-06-13T17:57:26.708Z,4.40
2018-06-13T17:59:55.375Z,4.47
2018-06-13T18:02:24.070Z,3.87
2018-06-13T18:05:07.616Z,4.40
2018-06-13T18:07:36.301Z,3.97
2018-06-13T18:10:05.080Z,5.37
2018-06-13T18:12:33.783Z,4.00
2018-06-13T18:15:02.483Z,4.30
2018-06-13T18:17:31.418Z,4.80
2018-06-13T18:25:47.974Z,4.23
2018-06-13T18:28:16.677Z,5.27
2018-06-13T18:33:40.361Z,5.10
2018-06-13T18:36:10.387Z,5.00
2018-06-13T18:38:39.072Z,5.40
2018-06-13T18:41:07.810Z,5.20
2018-06-13T18:43:36.491Z,4.60
2018-06-13T18:46:05.744Z,5.00
2018-06-13T18:48:34.446Z,5.27
2018-06-13T18:51:04.351Z,5.40
2018-06-13T18:53:33.041Z,4.87
2018-06-13T18:56:01.747Z,5.30
2018-06-13T18:58:30.732Z,5.10
2018-06-13T19:00:59.494Z,4.97
2018-06-13T19:03:28.494Z,5.50
2018-06-13T19:05:57.293Z,5.00
2018-06-13T19:08:25.965Z,5.50
2018-06-13T19:10:54.727Z,5.43
2018-06-13T19:13:23.391Z,5.43
2018-06-13T19:15:52.101Z,5.40
2018-06-13T19:18:20.787Z,6.23
2018-06-13T19:20:49.474Z,5.77
2018-06-13T19:23:18.194Z,5.93
2018-06-13T19:25:46.927Z,7.30
2018-06-13T19:28:15.613Z,6.30
2018-06-13T19:30:44.353Z,6.20
2018-06-13T19:33:13.061Z,5.33
2018-06-13T19:35:41.795Z,5.87
2018-06-13T19:38:10.483Z,5.83
2018-06-13T19:40:39.215Z,5.20
2018-06-13T19:43:13.188Z,5.60
2018-06-13T19:45:41.878Z,5.80
2018-06-13T19:48:15.840Z,5.80
2018-06-13T19:50:44.545Z,5.03
2018-06-13T19:53:18.703Z,5.93
2018-06-13T19:55:52.673Z,6.40
2018-06-13T19:58:21.404Z,5.87
2018-06-13T20:00:50.154Z,5.80
2018-06-13T20:03:24.750Z,5.67
2018-06-13T20:05:53.459Z,5.40
2018-06-13T20:08:22.151Z,4.93
2018-06-13T20:10:50.866Z,5.80
2018-06-13T20:13:24.874Z,5.93
2018-06-13T20:15:58.853Z,5.60
2018-06-13T20:18:32.871Z,5.80
2018-06-13T20:21:02.881Z,5.47
2018-06-13T20:23:31.777Z,5.90
2018-06-13T20:26:05.756Z,5.87
2018-06-13T20:28:39.717Z,5.80
2018-06-13T20:31:29.661Z,6.23
2018-06-13T20:33:58.359Z,5.10
2018-06-13T20:36:27.190Z,5.23
2018-06-13T20:38:55.959Z,5.90
2018-06-13T20:41:24.598Z,5.20
2018-06-13T20:43:53.309Z,6.07
2018-06-13T20:46:21.982Z,5.90
2018-06-13T20:48:50.672Z,6.00
2018-06-13T20:51:19.427Z,5.90
2018-06-13T20:53:48.148Z,5.93
2018-06-13T20:56:16.820Z,5.87
2018-06-13T20:58:45.610Z,5.60
2018-06-13T21:01:14.294Z,5.60
2018-06-13T21:03:43.005Z,5.27
2018-06-13T21:06:11.680Z,5.73
2018-06-13T21:08:40.423Z,5.47
2018-06-13T21:11:09.099Z,5.43
2018-06-13T21:13:37.804Z,5.80
2018-06-13T21:16:07.103Z,6.10
2018-06-13T21:18:35.843Z,5.90
2018-06-13T21:21:04.573Z,5.07
2018-06-13T21:23:33.303Z,6.23
2018-06-13T21:26:02.013Z,6.13
2018-06-13T21:28:30.763Z,5.77
2018-06-13T21:30:59.457Z,5.80
2018-06-13T21:33:29.010Z,5.90
2018-06-13T21:35:57.675Z,5.43
2018-06-13T21:38:26.375Z,6.33
2018-06-13T21:40:55.091Z,6.27
2018-06-13T21:43:23.818Z,6.10
2018-06-13T21:45:52.529Z,5.80
2018-06-13T21:48:21.232Z,6.17
2018-06-13T21:50:49.936Z,5.80
2018-06-13T21:53:18.665Z,6.10
2018-06-13T21:55:47.346Z,6.30
2018-06-13T21:58:16.080Z,6.20
2018-06-13T22:00:44.751Z,6.60
2018-06-13T22:03:13.510Z,6.10
2018-06-13T22:05:42.207Z,6.90
2018-06-13T22:08:10.910Z,5.83
2018-06-13T22:10:39.633Z,5.80
2018-06-13T22:13:08.380Z,6.20
2018-06-13T22:15:37.098Z,6.50
2018-06-13T22:18:06.009Z,6.40
2018-06-13T22:20:40.052Z,6.50
2018-06-13T22:23:08.777Z,5.63
2018-06-13T22:25:37.464Z,6.63
2018-06-13T22:28:06.182Z,6.37
2018-06-13T22:30:34.913Z,6.20
2018-06-13T22:33:03.599Z,6.03
2018-06-13T22:35:32.396Z,6.30
2018-06-13T22:38:01.073Z,6.30
2018-06-13T22:40:29.738Z,6.27
2018-06-13T22:42:58.421Z,6.93
2018-06-13T22:45:27.122Z,6.67
2018-06-13T22:47:55.841Z,6.50
2018-06-13T22:50:24.146Z,6.10
2018-06-13T22:52:52.826Z,6.60
2018-06-13T22:55:21.165Z,7.00
2018-06-13T22:57:49.863Z,6.10
2018-06-13T23:00:32.639Z,6.87
2018-06-13T23:03:01.388Z,6.40
2018-06-13T23:05:30.075Z,7.10
2018-06-13T23:07:58.775Z,6.30
2018-06-13T23:10:27.491Z,7.00
2018-06-13T23:12:56.162Z,7.30
2018-06-13T23:15:24.852Z,6.93
2018-06-13T23:17:53.545Z,7.13
2018-06-13T23:20:22.237Z,6.70
2018-06-13T23:22:50.909Z,6.87
2018-06-13T23:25:19.573Z,6.73
2018-06-13T23:27:48.299Z,7.30
2018-06-13T23:30:16.962Z,6.60
2018-06-13T23:32:45.672Z,7.10
2018-06-13T23:35:14.315Z,6.83
2018-06-13T23:37:43.025Z,6.93
2018-06-13T23:40:11.694Z,7.30
2018-06-13T23:42:40.356Z,6.90
2018-06-13T23:45:08.666Z,7.00
2018-06-13T23:47:37.339Z,7.20
2018-06-13T23:50:06.092Z,6.93
2018-06-13T23:52:34.827Z,6.97
2018-06-13T23:55:03.635Z,7.27
2018-06-13T23:57:32.287Z,7.10
